Time;durP1;ratioP1;P1;durP2;ratioP2;P2;SDS_P1;SDS_P2;PMS_P1;PMS_P2;Temp;Humidity;BMP_temperature;BMP_pressure;BME280_temperature;BME280_humidity;BME280_pressure;Samples;Min_cycle;Max_cycle;Signal;HPM_P1;HPM_P2
2023/10/21 05:18:46;;;;;;;;;;;;;;;;;;4802915;26;19930;-42
2023/10/21 05:21:12;;;;;;;;;;;;;;;;;;4988651;28;19926;-42
2023/10/21 05:23:38;;;;;;;;;;;;;;;;;;4990197;28;19910;-41
2023/10/21 05:26:04;;;;;;;;;;;;;;;;;;4990552;28;19917;-42
2023/10/21 05:28:31;;;;;;;;;;;;;;;;;;4990257;28;20487;-43
2023/10/21 05:30:57;;;;;;;;;;;;;;;;;;5057900;28;19909;-42
2023/10/21 05:33:23;;;;;;;;;;;;;;;;;;4989950;28;19920;-41
2023/10/21 05:35:49;;;;;;;;;;;;;;;;;;4989753;28;20380;-42
2023/10/21 05:38:15;;;;;;;;;;;;;;;;;;4987868;28;19941;-43
2023/10/21 05:40:41;;;;;;;;;;;;;;;;;;5045121;28;19916;-42
2023/10/21 05:43:07;;;;;;;;;;;;;;;;;;5072008;28;19938;-42
2023/10/21 05:45:32;;;;;;;;;;;;;;;;;;5072030;28;19956;-42
2023/10/21 05:47:58;;;;;;;;;;;;;;;;;;5057927;28;19913;-42
2023/10/21 05:50:25;;;;;;;;;;;;;;;;;;4989315;28;20578;-42
2023/10/21 05:52:51;;;;;;;;;;;;;;;;;;4988414;28;19914;-42
2023/10/21 05:55:17;;;;;;;;;;;;;;;;;;4989779;28;19963;-42
2023/10/21 05:57:43;;;;;;;;;;;;;;;;;;4988303;28;19967;-42
2023/10/21 06:00:09;;;;;;;;;;;;;;;;;;5038199;28;19921;-42
2023/10/21 06:02:35;;;;;;;;;;;;;;;;;;4989838;28;20292;-41
2023/10/21 06:05:01;;;;;;;;;;;;;;;;;;4989342;28;19974;-42
2023/10/21 06:07:27;;;;;;;;;;;;;;;;;;5054911;28;19921;-43
2023/10/21 06:09:53;;;;;;;;;;;;;;;;;;4987561;28;19938;-42
2023/10/21 06:12:19;;;;;;;;;;;;;;;;;;4989334;28;19914;-41
2023/10/21 06:14:45;;;;;;;;;;;;;;;;;;4989191;28;20357;-41
2023/10/21 06:17:11;;;;;;;;;;;;;;;;;;4990504;28;19918;-41
2023/10/21 06:19:36;;;;;;;;;;;;;;;;;;5054440;28;19918;-42
2023/10/21 06:22:03;;;;;;;;;;;;;;;;;;4971306;28;19964;-42
2023/10/21 06:24:29;;;;;;;;;;;;;;;;;;4972147;28;19914;-41
2023/10/21 06:26:55;;;;;;;;;;;;;;;;;;4971125;28;19960;-42
2023/10/21 06:29:23;;;;;;;;;;;;;;;;;;4969505;28;19942;-42
2023/10/21 06:31:49;;;;;;;;;;;;;;;;;;4978935;28;20008;-41
2023/10/21 06:34:15;;;;;;;;;;;;;;;;;;4983875;28;19997;-43
2023/10/21 06:36:41;;;;;;;;;;;;;;;;;;4979322;28;19933;-41
2023/10/21 06:39:07;;;;;;;;;;;;;;;;;;5037994;28;19914;-43
2023/10/21 06:41:33;;;;;;;;;;;;;;;;;;4970810;28;20403;-42
2023/10/21 06:43:59;;;;;;;;;;;;;;;;;;4978209;28;20311;-42
2023/10/21 06:46:25;;;;;;;;;;;;;;;;;;4990072;28;19913;-42
2023/10/21 06:48:51;;;;;;;;;;;;;;;;;;4989649;28;19914;-42
2023/10/21 06:51:19;;;;;;;;;;;;;;;;;;4980275;28;19910;-42
2023/10/21 06:53:45;;;;;;;;;;;;;;;;;;5057021;28;19909;-41
2023/10/21 06:56:12;;;;;;;;;;;;;;;;;;4990316;28;19917;-42
2023/10/21 06:58:38;;;;;;;;;;;;;;;;;;5003425;28;20000;-42
2023/10/21 07:01:04;;;;;;;;;;;;;;;;;;4979394;28;20005;-42
2023/10/21 07:03:30;;;;;;;;;;;;;;;;;;4988351;28;19970;-42
2023/10/21 07:05:55;;;;;;;;;;;;;;;;;;4972854;28;19922;-42
2023/10/21 07:08:23;;;;;;;;;;;;;;;;;;4983772;28;19959;-42
2023/10/21 07:10:49;;;;;;;;;;;;;;;;;;4988250;28;20010;-42
2023/10/21 07:13:14;;;;;;;;;;;;;;;;;;4988745;28;20395;-41
2023/10/21 07:15:40;;;;;;;;;;;;;;;;;;4989075;28;21055;-42
2023/10/21 07:18:07;;;;;;;;;;;;;;;;;;4972475;28;19910;-42
2023/10/21 07:20:36;;;;;;;;;;;;;;;;;;4969321;28;19922;-42
2023/10/21 07:23:02;;;;;;;;;;;;;;;;;;4969385;28;19917;-43
2023/10/21 07:25:28;;;;;;;;;;;;;;;;;;4981445;28;20395;-42
2023/10/21 07:27:54;;;;;;;;;;;;;;;;;;5004057;28;19916;-42
2023/10/21 07:30:23;;;;;;;;;;;;;;;;;;5071129;28;19916;-42
2023/10/21 07:32:49;;;;;;;;;;;;;;;;;;5071001;28;20294;-41
2023/10/21 07:35:16;;;;;;;;;;;;;;;;;;5058915;28;19961;-43
2023/10/21 07:37:44;;;;;;;;;;;;;;;;;;4988485;28;19948;-42
2023/10/21 07:40:10;;;;;;;;;;;;;;;;;;4979622;28;19924;-42
2023/10/21 07:42:36;;;;;;;;;;;;;;;;;;4988948;28;19910;-43
2023/10/21 07:45:04;;;;;;;;;;;;;;;;;;4988480;28;19973;-42
2023/10/21 07:47:30;;;;;;;;;;;;;;;;;;4988504;28;20382;-42
2023/10/21 07:49:56;;;;;;;;;;;;;;;;;;5035738;28;20014;-43
2023/10/21 07:52:22;;;;;;;;;;;;;;;;;;5004810;28;19993;-44
2023/10/21 07:54:48;;;;;;;;;;;;;;;;;;4971280;28;19971;-42
2023/10/21 07:57:13;;;;;;;;;;;;;;;;;;4968707;28;20324;-43
2023/10/21 07:59:39;;;;;;;;;;;;;;;;;;4973551;28;20384;-43
2023/10/21 08:02:05;;;;;;;;;;;;;;;;;;4988857;28;19913;-42
2023/10/21 08:04:31;;;;;;;;;;;;;;;;;;4990614;28;20012;-42
2023/10/21 08:06:57;;;;;;;;;;;;;;;;;;4987651;28;19964;-42
2023/10/21 08:09:23;;;;;;;;;;;;;;;;;;4987285;28;20006;-44
2023/10/21 08:11:49;;;;;;;;;;;;;;;;;;4991478;28;19967;-42
2023/10/21 08:14:15;;;;;;;;;;;;;;;;;;5076419;28;19910;-44
2023/10/21 08:16:42;;;;;;;;;;;;;;;;;;4992554;28;19914;-43
2023/10/21 08:19:09;;;;;;;;;;;;;;;;;;4991535;28;20372;-43
2023/10/21 08:21:35;;;;;;;;;;;;;;;;;;5059126;28;20315;-44
2023/10/21 08:24:02;;;;;;;;;;;;;;;;;;4991392;28;19910;-43
2023/10/21 08:26:28;;;;;;;;;;;;;;;;;;4991570;28;19941;-44
2023/10/21 08:28:54;;;;;;;;;;;;;;;;;;4991151;28;19932;-44
2023/10/21 08:31:22;;;;;;;;;;;;;;;;;;4991545;28;19913;-42
2023/10/21 08:33:48;;;;;;;;;;;;;;;;;;4991675;28;20025;-44
2023/10/21 08:36:13;;;;;;;;;;;;;;;;;;4991370;28;20400;-43
2023/10/21 08:38:39;;;;;;;;;;;;;;;;;;4991190;28;19917;-43
2023/10/21 08:41:05;;;;;;;;;;;;;;;;;;4991021;28;19964;-47
2023/10/21 08:43:31;;;;;;;;;;;;;;;;;;4991142;28;19962;-44
2023/10/21 08:45:59;;;;;;;;;;;;;;;;;;4991185;28;19910;-43
2023/10/21 08:48:25;;;;;;;;;;;;;;;;;;4991269;28;19910;-43
2023/10/21 08:50:51;;;;;;;;;;;;;;;;;;4988022;28;19949;-43
2023/10/21 08:53:17;;;;;;;;;;;;;;;;;;4972111;28;19949;-43
2023/10/21 08:55:43;;;;;;;;;;;;;;;;;;4971974;28;20325;-44
2023/10/21 08:58:10;;;;;;;;;;;;;;;;;;4971421;28;20008;-43
2023/10/21 09:00:38;;;;;;;;;;;;;;;;;;4971455;28;19964;-44
2023/10/21 09:03:04;;;;;;;;;;;;;;;;;;4971610;28;19933;-43
2023/10/21 09:05:30;;;;;;;;;;;;;;;;;;4971591;28;19911;-45
2023/10/21 09:07:56;;;;;;;;;;;;;;;;;;4981049;28;19913;-46
2023/10/21 09:10:22;;;;;;;;;;;;;;;;;;4987220;28;19921;-42
2023/10/21 09:12:48;;;;;;;;;;;;;;;;;;4990490;28;19921;-43
2023/10/21 09:15:13;;;;;;;;;;;;;;;;;;4988716;28;20353;-44
2023/10/21 09:17:39;;;;;;;;;;;;;;;;;;4990967;28;19917;-45
2023/10/21 09:20:05;;;;;;;;;;;;;;;;;;4990490;28;20299;-44
2023/10/21 09:22:33;;;;;;;;;;;;;;;;;;4989116;28;20371;-45
2023/10/21 09:24:59;;;;;;;;;;;;;;;;;;4987159;28;20000;-43
2023/10/21 09:27:25;;;;;;;;;;;;;;;;;;4988334;28;19952;-43
2023/10/21 09:29:50;;;;;;;;;;;;;;;;;;4986447;28;20320;-43
2023/10/21 09:32:16;;;;;;;;;;;;;;;;;;4990984;28;20384;-44
2023/10/21 09:34:42;;;;;;;;;;;;;;;;;;5058669;28;20009;-43
2023/10/21 09:37:08;;;;;;;;;;;;;;;;;;4988810;28;19910;-43
2023/10/21 09:39:36;;;;;;;;;;;;;;;;;;4980714;28;19917;-42
2023/10/21 09:42:02;;;;;;;;;;;;;;;;;;4989484;28;19918;-47
2023/10/21 09:44:29;;;;;;;;;;;;;;;;;;4988274;28;20269;-45
2023/10/21 09:46:55;;;;;;;;;;;;;;;;;;4989332;28;19910;-47
2023/10/21 09:49:21;;;;;;;;;;;;;;;;;;4990439;28;19917;-45
2023/10/21 09:51:47;;;;;;;;;;;;;;;;;;4989523;28;20388;-45
2023/10/21 09:54:13;;;;;;;;;;;;;;;;;;4988899;28;20070;-42
2023/10/21 09:56:39;;;;;;;;;;;;;;;;;;4989636;28;19910;-41
2023/10/21 09:59:05;;;;;;;;;;;;;;;;;;4978841;28;19920;-42
2023/10/21 10:01:31;;;;;;;;;;;;;;;;;;4970865;28;19914;-42
2023/10/21 10:03:57;;;;;;;;;;;;;;;;;;4980357;28;20373;-42
2023/10/21 10:06:23;;;;;;;;;;;;;;;;;;4981374;28;19938;-42
2023/10/21 10:08:49;;;;;;;;;;;;;;;;;;4970557;28;20335;-42
2023/10/21 10:11:18;;;;;;;;;;;;;;;;;;4983301;28;19945;-42
2023/10/21 10:13:46;;;;;;;;;;;;;;;;;;4989514;28;19909;-42
2023/10/21 10:16:12;;;;;;;;;;;;;;;;;;5073887;28;20295;-46
2023/10/21 10:18:38;;;;;;;;;;;;;;;;;;4989757;28;19917;-45
2023/10/21 10:21:04;;;;;;;;;;;;;;;;;;4989290;28;19918;-47
2023/10/21 10:23:32;;;;;;;;;;;;;;;;;;4988065;28;19913;-44
2023/10/21 10:25:59;;;;;;;;;;;;;;;;;;4989126;28;19910;-47
2023/10/21 10:28:25;;;;;;;;;;;;;;;;;;4990286;28;19948;-48
2023/10/21 10:30:51;;;;;;;;;;;;;;;;;;4990280;28;20376;-44
2023/10/21 10:33:17;;;;;;;;;;;;;;;;;;4989975;28;19955;-45
2023/10/21 10:35:43;;;;;;;;;;;;;;;;;;5073622;28;19996;-45
2023/10/21 10:38:10;;;;;;;;;;;;;;;;;;5071494;28;19914;-47
2023/10/21 10:40:38;;;;;;;;;;;;;;;;;;4988172;28;19926;-48
2023/10/21 10:43:04;;;;;;;;;;;;;;;;;;4982119;28;20044;-50
2023/10/21 10:45:30;;;;;;;;;;;;;;;;;;4990278;28;19917;-45
2023/10/21 10:47:56;;;;;;;;;;;;;;;;;;4990259;28;19929;-47
2023/10/21 10:50:23;;;;;;;;;;;;;;;;;;4989981;28;19949;-44
2023/10/21 10:52:49;;;;;;;;;;;;;;;;;;4989604;28;19910;-44
2023/10/21 10:55:15;;;;;;;;;;;;;;;;;;4985160;28;19924;-45
2023/10/21 10:57:42;;;;;;;;;;;;;;;;;;4988636;28;19913;-42
2023/10/21 11:00:10;;;;;;;;;;;;;;;;;;4984473;28;19918;-42
2023/10/21 11:02:36;;;;;;;;;;;;;;;;;;4989112;28;20360;-42
2023/10/21 11:05:03;;;;;;;;;;;;;;;;;;4985219;28;19924;-44
2023/10/21 11:07:30;;;;;;;;;;;;;;;;;;5055489;28;19917;-42
2023/10/21 11:09:57;;;;;;;;;;;;;;;;;;4987664;28;19967;-45
2023/10/21 11:12:23;;;;;;;;;;;;;;;;;;4985637;28;19928;-42
2023/10/21 11:14:49;;;;;;;;;;;;;;;;;;4988608;28;19913;-41
2023/10/21 11:17:17;;;;;;;;;;;;;;;;;;4985214;28;19953;-41
2023/10/21 11:19:43;;;;;;;;;;;;;;;;;;5051416;28;20403;-42
2023/10/21 11:22:09;;;;;;;;;;;;;;;;;;4985899;28;19964;-43
2023/10/21 11:24:35;;;;;;;;;;;;;;;;;;4984790;28;19983;-42
2023/10/21 11:27:01;;;;;;;;;;;;;;;;;;4975206;28;19960;-42
2023/10/21 11:29:26;;;;;;;;;;;;;;;;;;4985870;28;19914;-42
2023/10/21 11:31:52;;;;;;;;;;;;;;;;;;4987244;28;19919;-44
2023/10/21 11:34:18;;;;;;;;;;;;;;;;;;4986736;28;19913;-47
2023/10/21 11:36:44;;;;;;;;;;;;;;;;;;4986422;28;19972;-48
2023/10/21 11:39:13;;;;;;;;;;;;;;;;;;4986298;28;19917;-50
2023/10/21 11:41:39;;;;;;;;;;;;;;;;;;4986257;28;19924;-48
2023/10/21 11:44:05;;;;;;;;;;;;;;;;;;4986168;28;19997;-48
2023/10/21 11:46:31;;;;;;;;;;;;;;;;;;4986662;28;19914;-46
2023/10/21 11:48:57;;;;;;;;;;;;;;;;;;4985850;28;19925;-47
2023/10/21 11:51:22;;;;;;;;;;;;;;;;;;5054124;28;19961;-45
2023/10/21 11:53:50;;;;;;;;;;;;;;;;;;4986379;28;19914;-48
2023/10/21 12:15:06;;;;;;;;;;;;;;;;;;4975152;28;19914;-45
2023/10/21 12:18:12;;;;;;;;;;;;;;;;;;4982572;28;20389;-46
2023/10/21 12:26:19;;;;;;;;;;;;;;;;;;5038777;28;19912;-46
2023/10/21 12:34:29;;;;;;;;;;;;;;;;;;5026006;28;19910;-49
2023/10/21 12:39:55;;;;;;;;;;;;;;;;;;5000849;28;19917;-46
2023/10/21 12:42:26;;;;;;;;;;;;;;;;;;4969217;28;19926;-45
2023/10/21 12:44:54;;;;;;;;;;;;;;;;;;4973989;28;20476;-49
2023/10/21 12:47:20;;;;;;;;;;;;;;;;;;5053195;28;20423;-47
2023/10/21 12:49:48;;;;;;;;;;;;;;;;;;4988202;28;20024;-45
2023/10/21 12:52:16;;;;;;;;;;;;;;;;;;4987634;28;19921;-48
2023/10/21 12:54:43;;;;;;;;;;;;;;;;;;4987735;28;19920;-49
2023/10/21 12:57:09;;;;;;;;;;;;;;;;;;4970165;28;19918;-45
2023/10/21 12:59:35;;;;;;;;;;;;;;;;;;4978205;28;20275;-46
2023/10/21 13:02:01;;;;;;;;;;;;;;;;;;4984742;28;19978;-49
2023/10/21 13:04:27;;;;;;;;;;;;;;;;;;4989524;28;19914;-46
2023/10/21 13:06:53;;;;;;;;;;;;;;;;;;4988659;28;19918;-47
2023/10/21 13:09:20;;;;;;;;;;;;;;;;;;4988536;28;20368;-47
2023/10/21 13:11:49;;;;;;;;;;;;;;;;;;4988350;28;20406;-47
2023/10/21 13:14:15;;;;;;;;;;;;;;;;;;4984606;28;19953;-47
2023/10/21 13:16:41;;;;;;;;;;;;;;;;;;4983592;28;19957;-48
2023/10/21 13:19:07;;;;;;;;;;;;;;;;;;4979142;28;20008;-48
2023/10/21 13:21:32;;;;;;;;;;;;;;;;;;4987894;28;19922;-45
2023/10/21 13:23:58;;;;;;;;;;;;;;;;;;4989149;28;20284;-49
2023/10/21 13:26:24;;;;;;;;;;;;;;;;;;4979826;28;19957;-47
2023/10/21 13:28:51;;;;;;;;;;;;;;;;;;4969389;28;20342;-47
2023/10/21 13:31:17;;;;;;;;;;;;;;;;;;4976988;28;20296;-48
2023/10/21 13:33:43;;;;;;;;;;;;;;;;;;4988875;28;19917;-49
2023/10/21 13:36:09;;;;;;;;;;;;;;;;;;4988442;28;19913;-48
2023/10/21 13:38:34;;;;;;;;;;;;;;;;;;4987571;28;19917;-46
2023/10/21 13:41:02;;;;;;;;;;;;;;;;;;4988707;28;19914;-47
2023/10/21 13:43:28;;;;;;;;;;;;;;;;;;4987849;28;20424;-46
2023/10/21 13:45:54;;;;;;;;;;;;;;;;;;4983903;28;20003;-49
2023/10/21 13:48:20;;;;;;;;;;;;;;;;;;4969472;28;19936;-49
2023/10/21 13:50:50;;;;;;;;;;;;;;;;;;4977763;28;19910;-47
2023/10/21 13:53:17;;;;;;;;;;;;;;;;;;4987693;28;20376;-47
2023/10/21 13:55:43;;;;;;;;;;;;;;;;;;4989034;28;20141;-45
2023/10/21 13:58:08;;;;;;;;;;;;;;;;;;4983361;28;19910;-48
2023/10/21 14:00:34;;;;;;;;;;;;;;;;;;4984910;28;20009;-47
2023/10/21 14:03:00;;;;;;;;;;;;;;;;;;4981069;28;20480;-48
2023/10/21 14:05:26;;;;;;;;;;;;;;;;;;4969378;28;19917;-45
2023/10/21 14:07:52;;;;;;;;;;;;;;;;;;4984227;28;20000;-45
2023/10/21 14:10:18;;;;;;;;;;;;;;;;;;4978304;28;19913;-44
2023/10/21 14:12:50;;;;;;;;;;;;;;;;;;4981828;28;20003;-48
2023/10/21 14:15:19;;;;;;;;;;;;;;;;;;5053865;28;19968;-45
2023/10/21 14:17:45;;;;;;;;;;;;;;;;;;4987149;28;19953;-45
2023/10/21 14:20:11;;;;;;;;;;;;;;;;;;4987408;28;19957;-47
2023/10/21 14:22:39;;;;;;;;;;;;;;;;;;4986721;28;20290;-44
2023/10/21 14:25:04;;;;;;;;;;;;;;;;;;4980381;28;20384;-46
2023/10/21 14:27:31;;;;;;;;;;;;;;;;;;4968618;28;19945;-46
2023/10/21 14:29:57;;;;;;;;;;;;;;;;;;4982449;28;19933;-45
2023/10/21 14:32:22;;;;;;;;;;;;;;;;;;4985148;28;20388;-45
2023/10/21 14:34:53;;;;;;;;;;;;;;;;;;4987062;28;19996;-44
2023/10/21 14:37:19;;;;;;;;;;;;;;;;;;4986462;28;20300;-44
2023/10/21 14:39:44;;;;;;;;;;;;;;;;;;4988457;28;19917;-45
2023/10/21 14:42:10;;;;;;;;;;;;;;;;;;4983710;28;19921;-48
2023/10/21 14:44:41;;;;;;;;;;;;;;;;;;4974555;28;19914;-49
2023/10/21 14:47:07;;;;;;;;;;;;;;;;;;4985480;28;19914;-45
2023/10/21 14:49:33;;;;;;;;;;;;;;;;;;4996863;28;20393;-47
2023/10/21 14:51:59;;;;;;;;;;;;;;;;;;4968515;28;19978;-48
2023/10/21 14:54:25;;;;;;;;;;;;;;;;;;4967669;28;19910;-47
2023/10/21 14:56:51;;;;;;;;;;;;;;;;;;4974752;28;20864;-47
2023/10/21 14:59:17;;;;;;;;;;;;;;;;;;4982718;28;19921;-46
2023/10/21 15:01:43;;;;;;;;;;;;;;;;;;4981085;28;19926;-45
2023/10/21 15:04:09;;;;;;;;;;;;;;;;;;4986964;28;19918;-49
2023/10/21 15:06:35;;;;;;;;;;;;;;;;;;4977560;28;20285;-46
2023/10/21 15:09:01;;;;;;;;;;;;;;;;;;4984392;28;19924;-47
2023/10/21 15:11:28;;;;;;;;;;;;;;;;;;4982631;28;19921;-47
2023/10/21 15:13:54;;;;;;;;;;;;;;;;;;4982987;28;20439;-48
2023/10/21 15:16:20;;;;;;;;;;;;;;;;;;4982195;28;19914;-47
2023/10/21 15:18:47;;;;;;;;;;;;;;;;;;4986348;28;19918;-49
2023/10/21 15:21:15;;;;;;;;;;;;;;;;;;4985521;28;20295;-47
2023/10/21 15:23:41;;;;;;;;;;;;;;;;;;4980103;28;19945;-48
2023/10/21 15:26:07;;;;;;;;;;;;;;;;;;4978722;28;19972;-45
2023/10/21 15:28:32;;;;;;;;;;;;;;;;;;4985527;28;19917;-48
2023/10/21 15:30:58;;;;;;;;;;;;;;;;;;4985029;28;19914;-49
2023/10/21 15:33:24;;;;;;;;;;;;;;;;;;4982277;28;20446;-49
2023/10/21 15:35:50;;;;;;;;;;;;;;;;;;4983044;28;20356;-49
2023/10/21 15:38:16;;;;;;;;;;;;;;;;;;4982150;28;19940;-47
2023/10/21 15:40:42;;;;;;;;;;;;;;;;;;4979753;28;19924;-49
2023/10/21 15:43:08;;;;;;;;;;;;;;;;;;4985758;28;20000;-49
2023/10/21 15:45:34;;;;;;;;;;;;;;;;;;4985046;28;20013;-49
2023/10/21 15:48:00;;;;;;;;;;;;;;;;;;4984324;28;20459;-48
2023/10/21 15:50:25;;;;;;;;;;;;;;;;;;4983792;28;19966;-45
2023/10/21 15:52:51;;;;;;;;;;;;;;;;;;4985530;28;20403;-47
2023/10/21 15:55:17;;;;;;;;;;;;;;;;;;5053084;28;19916;-45
2023/10/21 15:57:43;;;;;;;;;;;;;;;;;;4985702;28;19918;-46
2023/10/21 16:00:14;;;;;;;;;;;;;;;;;;4985553;28;20391;-45
2023/10/21 16:02:41;;;;;;;;;;;;;;;;;;4983429;28;19924;-46
2023/10/21 16:05:06;;;;;;;;;;;;;;;;;;4984008;28;20009;-46
2023/10/21 16:07:32;;;;;;;;;;;;;;;;;;4985509;28;20008;-45
2023/10/21 16:09:58;;;;;;;;;;;;;;;;;;4984443;28;19914;-47
2023/10/21 16:12:24;;;;;;;;;;;;;;;;;;4977143;28;19918;-47
2023/10/21 16:14:50;;;;;;;;;;;;;;;;;;4975549;28;19914;-47
2023/10/21 16:17:16;;;;;;;;;;;;;;;;;;4981793;28;19921;-49
2023/10/21 16:19:42;;;;;;;;;;;;;;;;;;4983655;28;19967;-45
2023/10/21 16:22:08;;;;;;;;;;;;;;;;;;4976465;28;20012;-47
2023/10/21 16:24:34;;;;;;;;;;;;;;;;;;4982349;28;19949;-48
2023/10/21 16:27:00;;;;;;;;;;;;;;;;;;4986831;28;19967;-48
2023/10/21 16:29:25;;;;;;;;;;;;;;;;;;4988558;28;19910;-48
2023/10/21 16:31:51;;;;;;;;;;;;;;;;;;4990385;28;19916;-45
2023/10/21 16:34:17;;;;;;;;;;;;;;;;;;4977553;28;19910;-48
2023/10/21 16:36:43;;;;;;;;;;;;;;;;;;4987994;28;19925;-48
2023/10/21 16:39:09;;;;;;;;;;;;;;;;;;4987895;28;20250;-47
2023/10/21 16:41:36;;;;;;;;;;;;;;;;;;4984109;28;19918;-48
2023/10/21 16:44:02;;;;;;;;;;;;;;;;;;4986339;28;19914;-46
2023/10/21 16:46:27;;;;;;;;;;;;;;;;;;4986802;28;19913;-48
2023/10/21 16:48:53;;;;;;;;;;;;;;;;;;4987150;28;19925;-47
2023/10/21 16:51:19;;;;;;;;;;;;;;;;;;4985770;28;20436;-44
2023/10/21 16:53:45;;;;;;;;;;;;;;;;;;4983461;28;19914;-48
2023/10/21 16:56:11;;;;;;;;;;;;;;;;;;4984095;28;19926;-49
2023/10/21 16:58:37;;;;;;;;;;;;;;;;;;5051551;28;19928;-48
2023/10/21 17:01:04;;;;;;;;;;;;;;;;;;4981656;28;19943;-46
2023/10/21 17:03:30;;;;;;;;;;;;;;;;;;4985343;28;19921;-44
2023/10/21 17:06:00;;;;;;;;;;;;;;;;;;4984043;28;20456;-46
2023/10/21 17:08:26;;;;;;;;;;;;;;;;;;4983167;28;19971;-48
2023/10/21 17:10:52;;;;;;;;;;;;;;;;;;4979962;28;20397;-46
2023/10/21 17:13:18;;;;;;;;;;;;;;;;;;4979657;28;20224;-44
2023/10/21 17:15:44;;;;;;;;;;;;;;;;;;4984862;28;19928;-43
2023/10/21 17:18:09;;;;;;;;;;;;;;;;;;4981930;28;20004;-47
2023/10/21 17:20:35;;;;;;;;;;;;;;;;;;4985379;28;19918;-43
2023/10/21 17:23:03;;;;;;;;;;;;;;;;;;4982456;28;19936;-46
2023/10/21 17:25:29;;;;;;;;;;;;;;;;;;4985220;28;19921;-47
2023/10/21 17:27:55;;;;;;;;;;;;;;;;;;5052431;28;20360;-44
2023/10/21 17:30:21;;;;;;;;;;;;;;;;;;4983932;28;20229;-49
2023/10/21 17:32:47;;;;;;;;;;;;;;;;;;4983151;28;20359;-44
2023/10/21 17:35:13;;;;;;;;;;;;;;;;;;5050797;28;19914;-46
2023/10/21 17:37:39;;;;;;;;;;;;;;;;;;4982150;28;20017;-45
2023/10/21 17:40:05;;;;;;;;;;;;;;;;;;5050572;28;19940;-45
2023/10/21 17:42:31;;;;;;;;;;;;;;;;;;4978899;28;19967;-46
2023/10/21 17:44:57;;;;;;;;;;;;;;;;;;4980414;28;20249;-46
2023/10/21 17:47:25;;;;;;;;;;;;;;;;;;4983625;28;19936;-46
2023/10/21 18:02:32;;;;;;;;;;;;;;;;;;5042897;28;19917;-49
2023/10/21 18:04:58;;;;;;;;;;;;;;;;;;5041578;28;19924;-48
2023/10/21 18:07:24;;;;;;;;;;;;;;;;;;5039820;28;19962;-47
2023/10/21 18:09:50;;;;;;;;;;;;;;;;;;5043105;28;19917;-48
2023/10/21 18:12:16;;;;;;;;;;;;;;;;;;5043695;28;20297;-48
2023/10/21 18:14:42;;;;;;;;;;;;;;;;;;5033217;28;19920;-47
2023/10/21 18:17:08;;;;;;;;;;;;;;;;;;5044555;28;19917;-49
2023/10/21 18:19:35;;;;;;;;;;;;;;;;;;5046670;28;20292;-47
2023/10/21 18:22:01;;;;;;;;;;;;;;;;;;5041787;28;19917;-45
2023/10/21 18:24:27;;;;;;;;;;;;;;;;;;5042519;28;20460;-50
2023/10/21 18:26:53;;;;;;;;;;;;;;;;;;5041462;28;19912;-51
2023/10/21 18:29:19;;;;;;;;;;;;;;;;;;5044850;28;19921;-45
2023/10/21 18:31:46;;;;;;;;;;;;;;;;;;5043746;28;19916;-50
2023/10/21 18:34:11;;;;;;;;;;;;;;;;;;5042983;28;19913;-50
2023/10/21 18:36:37;;;;;;;;;;;;;;;;;;5042696;28;20355;-51
2023/10/21 18:39:05;;;;;;;;;;;;;;;;;;5042284;28;20177;-50
2023/10/21 18:41:31;;;;;;;;;;;;;;;;;;5043418;28;19954;-49
2023/10/21 18:43:57;;;;;;;;;;;;;;;;;;5042445;28;19927;-47
2023/10/21 18:46:23;;;;;;;;;;;;;;;;;;5031217;28;19926;-47
2023/10/21 18:48:49;;;;;;;;;;;;;;;;;;5041862;28;19912;-48
2023/10/21 18:51:21;;;;;;;;;;;;;;;;;;5042857;28;19924;-48
2023/10/21 18:53:47;;;;;;;;;;;;;;;;;;5043075;28;19920;-46
2023/10/21 18:56:13;;;;;;;;;;;;;;;;;;5043875;28;20356;-50
2023/10/21 18:58:39;;;;;;;;;;;;;;;;;;5043896;28;19919;-47
2023/10/21 19:01:05;;;;;;;;;;;;;;;;;;5038912;28;19921;-51
2023/10/21 19:03:32;;;;;;;;;;;;;;;;;;5029724;28;20336;-47
2023/10/21 19:05:58;;;;;;;;;;;;;;;;;;5028643;28;19927;-48
2023/10/21 19:08:24;;;;;;;;;;;;;;;;;;5029275;28;20405;-46
2023/10/21 19:10:50;;;;;;;;;;;;;;;;;;5026758;28;19924;-47
2023/10/21 19:13:17;;;;;;;;;;;;;;;;;;5030485;28;19920;-50
2023/10/21 19:15:43;;;;;;;;;;;;;;;;;;5028833;28;19913;-47
2023/10/21 19:18:09;;;;;;;;;;;;;;;;;;5039528;28;19916;-50
2023/10/21 19:20:36;;;;;;;;;;;;;;;;;;5036133;28;20020;-48
2023/10/21 19:23:02;;;;;;;;;;;;;;;;;;5028719;28;20292;-47
2023/10/21 19:25:28;;;;;;;;;;;;;;;;;;5028762;28;20328;-46
2023/10/21 19:27:54;;;;;;;;;;;;;;;;;;5029818;28;19916;-47
2023/10/21 19:30:20;;;;;;;;;;;;;;;;;;5029401;28;19975;-47
2023/10/21 19:32:46;;;;;;;;;;;;;;;;;;5029741;28;19958;-46
2023/10/21 19:35:12;;;;;;;;;;;;;;;;;;5027872;28;19941;-46
2023/10/21 19:37:39;;;;;;;;;;;;;;;;;;5027272;28;19921;-45
2023/10/21 19:40:05;;;;;;;;;;;;;;;;;;5024014;28;20293;-46
2023/10/21 19:42:30;;;;;;;;;;;;;;;;;;5029895;28;19909;-46
2023/10/21 19:44:56;;;;;;;;;;;;;;;;;;5026608;28;19913;-46
2023/10/21 19:47:23;;;;;;;;;;;;;;;;;;5020932;28;19917;-46
2023/10/21 19:49:49;;;;;;;;;;;;;;;;;;5028665;28;20377;-45
2023/10/21 19:52:17;;;;;;;;;;;;;;;;;;5029991;28;19924;-47
2023/10/21 19:54:44;;;;;;;;;;;;;;;;;;5034554;28;19952;-46
2023/10/21 19:57:09;;;;;;;;;;;;;;;;;;5020107;28;20088;-47
2023/10/21 19:59:35;;;;;;;;;;;;;;;;;;5009644;28;20313;-46
2023/10/21 20:02:01;;;;;;;;;;;;;;;;;;5024749;28;19952;-47
2023/10/21 20:04:27;;;;;;;;;;;;;;;;;;5026983;28;19912;-46
2023/10/21 20:06:54;;;;;;;;;;;;;;;;;;5034593;28;19917;-48
2023/10/21 20:09:20;;;;;;;;;;;;;;;;;;5027690;28;19917;-46
2023/10/21 20:11:46;;;;;;;;;;;;;;;;;;5026125;28;19966;-47
2023/10/21 20:14:12;;;;;;;;;;;;;;;;;;5019541;28;20309;-49
2023/10/21 20:16:38;;;;;;;;;;;;;;;;;;5008602;28;19932;-48
2023/10/21 20:19:04;;;;;;;;;;;;;;;;;;5027374;28;20029;-49
2023/10/21 20:21:30;;;;;;;;;;;;;;;;;;5026410;28;20750;-50
2023/10/21 20:23:59;;;;;;;;;;;;;;;;;;5026613;28;19914;-46
2023/10/21 20:26:25;;;;;;;;;;;;;;;;;;5026157;28;19909;-47
2023/10/21 20:28:51;;;;;;;;;;;;;;;;;;5027521;28;20000;-47
2023/10/21 20:31:17;;;;;;;;;;;;;;;;;;5028494;28;19924;-46
2023/10/21 20:33:43;;;;;;;;;;;;;;;;;;5028543;28;20003;-47
2023/10/21 20:36:09;;;;;;;;;;;;;;;;;;5028709;28;19916;-46
2023/10/21 20:38:35;;;;;;;;;;;;;;;;;;5028512;28;19909;-50
2023/10/21 20:41:03;;;;;;;;;;;;;;;;;;5028552;28;19909;-48
2023/10/21 20:43:29;;;;;;;;;;;;;;;;;;5028407;28;19909;-49
2023/10/21 20:45:55;;;;;;;;;;;;;;;;;;5027189;28;19913;-52
2023/10/21 20:48:21;;;;;;;;;;;;;;;;;;5028426;28;20030;-47
2023/10/21 20:50:47;;;;;;;;;;;;;;;;;;5028806;28;19913;-49
2023/10/21 20:53:13;;;;;;;;;;;;;;;;;;5028381;28;19909;-46
2023/10/21 20:55:38;;;;;;;;;;;;;;;;;;5028152;28;20374;-48
2023/10/21 20:58:04;;;;;;;;;;;;;;;;;;5028108;28;19952;-49
2023/10/21 21:00:30;;;;;;;;;;;;;;;;;;5027792;28;19949;-47
2023/10/21 21:02:56;;;;;;;;;;;;;;;;;;5026733;28;19909;-48
2023/10/21 21:05:22;;;;;;;;;;;;;;;;;;5027073;28;20385;-50
2023/10/21 21:07:48;;;;;;;;;;;;;;;;;;5028730;28;19909;-48
2023/10/21 21:10:14;;;;;;;;;;;;;;;;;;5027809;28;19940;-48
2023/10/21 21:12:40;;;;;;;;;;;;;;;;;;5028070;28;19924;-47
2023/10/21 21:15:06;;;;;;;;;;;;;;;;;;5027822;28;20347;-47
2023/10/21 21:17:32;;;;;;;;;;;;;;;;;;5027983;28;19909;-46
2023/10/21 21:19:58;;;;;;;;;;;;;;;;;;5027600;28;19909;-48
2023/10/21 21:22:24;;;;;;;;;;;;;;;;;;5027750;28;19978;-46
2023/10/21 21:24:50;;;;;;;;;;;;;;;;;;5027528;28;19917;-48
2023/10/21 21:27:16;;;;;;;;;;;;;;;;;;5028111;28;20504;-49
2023/10/21 21:29:41;;;;;;;;;;;;;;;;;;5027521;28;20022;-47
2023/10/21 21:32:07;;;;;;;;;;;;;;;;;;5027716;28;19916;-49
2023/10/21 21:34:33;;;;;;;;;;;;;;;;;;5027552;28;19913;-48
2023/10/21 21:36:59;;;;;;;;;;;;;;;;;;5027730;28;19956;-47
2023/10/21 21:39:26;;;;;;;;;;;;;;;;;;5027491;28;19913;-49
2023/10/21 21:41:51;;;;;;;;;;;;;;;;;;5027606;28;19909;-49
2023/10/21 21:44:17;;;;;;;;;;;;;;;;;;5028045;28;19916;-47
2023/10/21 21:46:43;;;;;;;;;;;;;;;;;;5027454;28;19913;-48
2023/10/21 21:49:09;;;;;;;;;;;;;;;;;;5026500;28;19913;-48
2023/10/21 21:51:35;;;;;;;;;;;;;;;;;;5027723;28;19910;-50
2023/10/21 21:54:01;;;;;;;;;;;;;;;;;;5027629;28;19909;-48
2023/10/21 21:56:27;;;;;;;;;;;;;;;;;;5027435;28;19909;-47
2023/10/21 21:58:53;;;;;;;;;;;;;;;;;;5027081;28;19964;-48
2023/10/21 22:01:19;;;;;;;;;;;;;;;;;;5027969;28;19947;-48
2023/10/21 22:03:45;;;;;;;;;;;;;;;;;;5027533;28;20015;-47
2023/10/21 22:06:12;;;;;;;;;;;;;;;;;;5026027;28;19924;-47
2023/10/21 22:08:38;;;;;;;;;;;;;;;;;;5027394;28;19909;-48
2023/10/21 22:11:03;;;;;;;;;;;;;;;;;;5027204;28;20442;-49
2023/10/21 22:13:30;;;;;;;;;;;;;;;;;;5026289;28;19921;-48
2023/10/21 22:15:59;;;;;;;;;;;;;;;;;;5023483;28;20100;-47
2023/10/21 22:18:25;;;;;;;;;;;;;;;;;;5026923;28;19948;-46
2023/10/21 22:20:51;;;;;;;;;;;;;;;;;;5027394;28;20010;-46
2023/10/21 22:23:19;;;;;;;;;;;;;;;;;;5027229;28;19919;-52
2023/10/21 22:25:45;;;;;;;;;;;;;;;;;;5027660;28;19957;-46
2023/10/21 22:28:14;;;;;;;;;;;;;;;;;;5027218;28;20415;-48
2023/10/21 22:30:40;;;;;;;;;;;;;;;;;;5028086;28;19919;-49
2023/10/21 22:33:06;;;;;;;;;;;;;;;;;;5027180;28;19913;-49
2023/10/21 22:35:32;;;;;;;;;;;;;;;;;;5027067;28;19991;-50
2023/10/21 22:37:58;;;;;;;;;;;;;;;;;;5031714;28;19916;-51
2023/10/21 22:40:24;;;;;;;;;;;;;;;;;;5031924;28;19919;-47
2023/10/21 22:42:50;;;;;;;;;;;;;;;;;;5032746;28;20376;-51